Aérodrome :
LOGIN :

S'inscrire | Disclaimer

   EN    FR    IT 

 










Légende :    VFR   VFR Marginal   IFR   IFR Intensif   IFR Très Intensif
Visi : 
Plafond : 
>= 8 km
>= 3000ft
5 à 8 km
1000 à 3000 ft
1500m à 5 km
500 à 1000 ft
800 à 1500m
200 à 500 ft
< 800m
< 200 ft
Symboles :   Orages  Brouillard  Fortes neiges  Fortes précipitations  Vent > 20 kt
SIGMETs :   Divers  Orages  Givrage  Turbulence  Onde Orograph.  Cendres Volcan.






- Altitude de l'aérodrome : 328 ft
- Code IATA : PGX


LFBX - Périgueux Bassillac

DERNIER METAR :
  • 250530Z AUTO VRB02KT 8000 VV/// 15/15 Q1012

METARs EXPIRÉS :
  • 250500Z AUTO 10003KT 0600 R29/0750D FG VV/// 14/13 Q1012
  • 250430Z AUTO 00000KT 2400 1000 R29/1300D BR NSC 13/13 Q1012
  • 250400Z AUTO 00000KT 2400 R29/1200U BR NSC 14/13 Q1011
  • 250330Z AUTO 10002KT 4500 BR NSC 14/14 Q1011
  • 250300Z AUTO 00000KT 5000 BR NSC 14/14 Q1012
  • 250230Z AUTO 00000KT 5000 BR NSC 14/14 Q1012
  • 250200Z AUTO 10002KT 1200 R29/1300D BR NSC 15/15 Q1012
  • 250130Z AUTO 10001KT 3800 BR NSC 15/15 Q1012
  • 250100Z AUTO 00000KT 3700 BR NSC 15/15 Q1012
  • 250030Z AUTO 00000KT 5000 R29/1200U BR NSC 16/15 Q1012

TAF N/A



MET'MAP, la Météo Aéronautique d'un coup d'oeil ! - Copyright ORBIFLY Décembre 2007 - Disclaimer

ORBIFLY MET'MAP TEAM :

Programmation & Développement : Alexandra Zaïnal
Sur une idée originale de : Baudouin d'Aumeries
Soutien technique & logistique : Manuel Goepfert
Assistance : Marc-Olivier Méhu




SOURCES & CREDITS :

   NOAA